Olmito, Texas
Current Conditions -  °F | °C
As of 7:53 PM on Wednesday 22 Oct 2014 (Local Time) from KBRO Reporting Station
Clear Clear  
Wind Chill: 24°   Ceiling: Unl
Heat Index: 24°   Visibility: 10mi
Dew Point: 20°   Wind: 6mph
Humidity: 76%   Direction: 50°NE
Pressure: 29.99"   Gusts: NA
Location:  26.02°N, 97.53°W
Report Text: KBRO 230053Z 05005KT 10SM CLR 24/20 A2999 RMK AO2 SLP155 T02440200
Loading
Personal Weather Stations






























Interactive Weather Map
Tropical Storm Tracking
New forecast layout! Learn more

10-Day Weather Forecast

Advertisements
Track Severe Weather on mobile